createdAt,value
2018-01-30T00:01:41.491Z,4.83
2018-01-30T00:04:07.246Z,4.27
2018-01-30T00:06:33.035Z,5.20
2018-01-30T00:08:58.825Z,4.57
2018-01-30T00:11:24.676Z,4.90
2018-01-30T00:13:50.455Z,5.37
2018-01-30T00:16:16.207Z,4.57
2018-01-30T00:18:41.959Z,5.80
2018-01-30T00:21:08.007Z,4.80
2018-01-30T00:23:34.109Z,4.68
2018-01-30T00:25:59.886Z,4.05
2018-01-30T00:28:25.655Z,4.37
2018-01-30T00:30:51.988Z,4.57
2018-01-30T00:33:18.387Z,3.75
2018-01-30T00:35:44.595Z,4.35
2018-01-30T00:38:10.470Z,4.57
2018-01-30T00:40:36.231Z,4.43
2018-01-30T00:43:02.043Z,5.03
2018-01-30T00:45:27.803Z,3.93
2018-01-30T00:47:53.587Z,4.33
2018-01-30T00:50:19.667Z,4.57
2018-01-30T00:52:45.455Z,4.25
2018-01-30T00:55:11.214Z,4.60
2018-01-30T00:57:36.983Z,3.47
2018-01-30T01:00:02.746Z,4.40
2018-01-30T01:02:28.527Z,4.03
2018-01-30T01:04:54.284Z,4.57
2018-01-30T01:07:20.055Z,4.80
2018-01-30T01:09:45.818Z,3.80
2018-01-30T01:12:11.579Z,4.03
2018-01-30T01:14:37.343Z,4.73
2018-01-30T01:17:03.114Z,4.20
2018-01-30T01:19:28.867Z,4.63
2018-01-30T01:21:54.644Z,5.07
2018-01-30T01:24:20.402Z,4.17
2018-01-30T01:26:46.162Z,5.40
2018-01-30T01:29:11.931Z,4.60
2018-01-30T01:31:37.697Z,4.33
2018-01-30T01:34:03.459Z,4.23
2018-01-30T01:36:29.214Z,4.33
2018-01-30T01:38:54.988Z,4.90
2018-01-30T01:41:20.746Z,5.60
2018-01-30T01:43:46.510Z,4.60
2018-01-30T01:46:12.260Z,4.03
2018-01-30T01:48:38.043Z,4.40
2018-01-30T01:51:03.795Z,3.90
2018-01-30T01:53:29.569Z,5.70
2018-01-30T01:55:55.338Z,4.17
2018-01-30T01:58:21.104Z,4.40
2018-01-30T02:00:46.846Z,4.90
2018-01-30T02:03:12.627Z,4.33
2018-01-30T02:05:38.382Z,3.87
2018-01-30T02:08:04.163Z,5.40
2018-01-30T02:10:29.919Z,4.87
2018-01-30T02:12:55.708Z,4.77
2018-01-30T02:15:21.454Z,5.10
2018-01-30T02:17:47.215Z,4.57
2018-01-30T02:20:12.969Z,4.37
2018-01-30T02:22:38.750Z,4.63
2018-01-30T02:25:04.516Z,5.10
2018-01-30T02:27:30.271Z,4.70
2018-01-30T02:29:56.028Z,5.20
2018-01-30T02:32:21.797Z,5.33
2018-01-30T02:34:47.563Z,4.63
2018-01-30T02:37:13.319Z,5.20
2018-01-30T02:39:39.080Z,4.63
2018-01-30T02:42:04.836Z,4.23
2018-01-30T02:44:30.620Z,4.87
2018-01-30T02:46:56.377Z,4.40
2018-01-30T02:49:22.131Z,5.57
2018-01-30T02:51:47.890Z,5.13
2018-01-30T02:54:13.655Z,5.93
2018-01-30T02:56:39.403Z,5.33
2018-01-30T02:59:05.165Z,5.60
2018-01-30T03:01:30.894Z,5.50
2018-01-30T03:03:56.655Z,4.77
2018-01-30T03:06:22.412Z,4.77
2018-01-30T03:08:48.168Z,4.43
2018-01-30T03:11:13.915Z,4.73
2018-01-30T03:13:39.678Z,5.33
2018-01-30T03:16:05.459Z,5.10
2018-01-30T03:18:31.213Z,5.17
2018-01-30T03:20:56.984Z,4.53
2018-01-30T03:23:22.759Z,4.60
2018-01-30T03:25:48.561Z,5.07
2018-01-30T03:28:14.291Z,4.17
2018-01-30T03:30:40.067Z,5.37
2018-01-30T03:33:05.823Z,4.87
2018-01-30T03:35:31.590Z,4.97
2018-01-30T03:37:57.343Z,4.80
2018-01-30T03:40:23.106Z,5.13
2018-01-30T03:42:48.855Z,5.10
2018-01-30T03:45:14.626Z,5.57
2018-01-30T03:47:40.404Z,4.37
2018-01-30T03:50:06.151Z,4.53
2018-01-30T03:52:31.910Z,4.90
2018-01-30T03:54:57.663Z,5.20
2018-01-30T03:57:23.419Z,5.23
2018-01-30T03:59:49.167Z,4.37
2018-01-30T04:02:14.936Z,4.10
2018-01-30T04:04:40.682Z,4.07
2018-01-30T04:07:06.435Z,4.87
2018-01-30T04:09:32.187Z,4.30
2018-01-30T04:11:57.963Z,4.90
2018-01-30T04:14:23.739Z,3.90
2018-01-30T04:16:49.491Z,4.10
2018-01-30T04:19:15.255Z,4.47
2018-01-30T04:21:41.017Z,4.73
2018-01-30T04:24:06.767Z,4.30
2018-01-30T04:26:32.518Z,4.70
2018-01-30T04:28:58.305Z,5.30
2018-01-30T04:31:24.034Z,5.53
2018-01-30T04:33:49.781Z,4.40
2018-01-30T04:36:15.518Z,5.00
2018-01-30T04:38:41.274Z,4.73
2018-01-30T04:41:07.023Z,5.03
2018-01-30T04:43:32.773Z,5.53
2018-01-30T04:45:58.532Z,5.80
2018-01-30T04:48:24.303Z,5.80
2018-01-30T04:50:50.054Z,4.77
2018-01-30T04:53:15.823Z,5.70
2018-01-30T04:55:41.579Z,5.10
2018-01-30T04:58:07.330Z,6.03
2018-01-30T05:00:33.086Z,5.40
2018-01-30T05:02:58.861Z,4.97
2018-01-30T05:05:24.603Z,5.77
2018-01-30T05:07:50.375Z,4.37
2018-01-30T05:10:16.123Z,5.13
2018-01-30T05:12:41.899Z,5.47
2018-01-30T05:15:07.654Z,5.27
2018-01-30T05:17:33.422Z,4.30
2018-01-30T05:19:59.192Z,4.53
2018-01-30T05:22:24.946Z,5.20
2018-01-30T05:24:50.711Z,5.50
2018-01-30T05:27:16.472Z,5.23
2018-01-30T05:29:42.234Z,4.43
2018-01-30T05:32:07.999Z,5.53
2018-01-30T05:34:33.767Z,5.13
2018-01-30T05:36:59.518Z,4.37
2018-01-30T05:39:25.271Z,5.50
2018-01-30T05:41:51.808Z,5.62
2018-01-30T05:44:17.585Z,5.23
2018-01-30T05:46:43.326Z,4.93
2018-01-30T05:49:09.083Z,5.23
2018-01-30T05:51:34.826Z,6.07
2018-01-30T05:54:00.587Z,5.67
2018-01-30T05:56:26.335Z,4.87
2018-01-30T05:58:52.086Z,4.77
2018-01-30T06:01:17.842Z,4.60
2018-01-30T06:03:43.582Z,4.33
2018-01-30T06:06:09.389Z,4.70
2018-01-30T06:08:35.114Z,4.70
2018-01-30T06:11:00.887Z,5.27
2018-01-30T06:13:26.635Z,4.40
2018-01-30T06:15:52.382Z,4.23
2018-01-30T06:18:18.146Z,5.27
2018-01-30T06:20:43.907Z,5.13
2018-01-30T06:23:09.679Z,5.17
2018-01-30T06:25:35.442Z,5.90
2018-01-30T06:28:01.211Z,5.10
2018-01-30T06:30:26.971Z,5.30
2018-01-30T06:32:52.734Z,5.30
2018-01-30T06:35:18.501Z,5.33
2018-01-30T06:37:44.245Z,6.03
2018-01-30T06:40:09.999Z,4.47
2018-01-30T06:42:35.764Z,5.67
2018-01-30T06:45:01.528Z,5.00
2018-01-30T06:47:27.283Z,5.00
2018-01-30T06:49:53.054Z,5.77
2018-01-30T06:52:18.802Z,5.57
2018-01-30T06:54:44.538Z,5.50
2018-01-30T06:57:10.287Z,5.07
2018-01-30T06:59:36.045Z,6.27
2018-01-30T07:02:01.828Z,6.70
2018-01-30T07:04:27.623Z,5.53
2018-01-30T07:06:53.370Z,6.57
2018-01-30T07:09:19.120Z,6.23
2018-01-30T07:11:44.889Z,4.70
2018-01-30T07:14:10.636Z,6.07
2018-01-30T07:16:36.432Z,5.63
2018-01-30T07:19:02.182Z,5.63
2018-01-30T07:21:27.947Z,5.87
2018-01-30T07:23:53.703Z,6.37
2018-01-30T07:26:19.470Z,4.83
2018-01-30T07:28:45.249Z,5.40
2018-01-30T07:31:11.023Z,5.17
2018-01-30T07:33:36.766Z,6.03
2018-01-30T07:36:02.531Z,5.63
2018-01-30T07:38:28.287Z,5.23
2018-01-30T07:40:54.050Z,6.17
2018-01-30T07:43:19.820Z,5.80
2018-01-30T07:45:45.578Z,6.07
2018-01-30T07:48:11.351Z,5.53
2018-01-30T07:50:37.096Z,6.27
2018-01-30T07:53:02.857Z,5.77
2018-01-30T07:55:28.619Z,6.97
2018-01-30T07:57:54.399Z,4.80
2018-01-30T08:00:20.156Z,5.23
2018-01-30T08:02:45.919Z,4.47
2018-01-30T08:05:11.662Z,6.00
2018-01-30T08:07:37.414Z,6.10
2018-01-30T08:10:03.175Z,5.37
2018-01-30T08:12:28.936Z,5.63
2018-01-30T08:14:54.699Z,4.90
2018-01-30T08:17:20.469Z,5.67
2018-01-30T08:19:46.233Z,5.73
2018-01-30T08:22:12.023Z,5.47
2018-01-30T08:24:37.785Z,5.33
2018-01-30T08:27:03.581Z,6.23
2018-01-30T08:29:29.316Z,5.33
2018-01-30T08:31:55.076Z,5.43
2018-01-30T08:34:20.843Z,5.80
2018-01-30T08:36:46.587Z,4.73
2018-01-30T08:39:12.340Z,5.20
2018-01-30T08:41:38.090Z,5.43
2018-01-30T08:44:03.835Z,5.40
2018-01-30T08:46:29.586Z,4.97
2018-01-30T08:48:55.342Z,5.50
2018-01-30T08:51:21.095Z,4.90
2018-01-30T08:53:46.868Z,5.13
2018-01-30T08:56:12.618Z,4.70
2018-01-30T08:58:38.367Z,5.00
2018-01-30T09:01:04.127Z,5.17
2018-01-30T09:03:29.929Z,4.90
2018-01-30T09:05:55.662Z,4.53
2018-01-30T09:08:21.435Z,4.70
2018-01-30T09:10:47.187Z,3.83
2018-01-30T09:13:12.958Z,4.40
2018-01-30T09:15:38.731Z,4.93
2018-01-30T09:18:04.478Z,4.37
2018-01-30T09:20:30.246Z,5.07
2018-01-30T09:22:56.019Z,4.90
2018-01-30T09:25:21.779Z,5.27
2018-01-30T09:27:47.534Z,4.20
2018-01-30T09:30:13.286Z,5.70
2018-01-30T09:32:39.055Z,3.87
2018-01-30T09:35:04.827Z,4.20
2018-01-30T09:37:30.584Z,4.37
2018-01-30T09:39:56.338Z,4.77
2018-01-30T09:42:22.087Z,4.27
2018-01-30T09:44:47.863Z,4.40
2018-01-30T09:47:13.615Z,4.10
2018-01-30T09:49:39.382Z,4.63
2018-01-30T09:52:05.146Z,4.00
2018-01-30T09:54:30.899Z,4.73
2018-01-30T09:56:56.672Z,5.03
2018-01-30T09:59:22.424Z,4.10
2018-01-30T10:01:48.180Z,5.50
2018-01-30T10:04:13.946Z,4.40
2018-01-30T10:06:39.718Z,4.90
2018-01-30T10:09:05.475Z,3.83
2018-01-30T10:11:31.235Z,4.70
2018-01-30T10:13:56.999Z,4.80
2018-01-30T10:16:22.770Z,4.00
2018-01-30T10:18:48.543Z,4.23
2018-01-30T10:21:14.310Z,3.07
2018-01-30T10:23:40.054Z,2.80
2018-01-30T10:26:05.803Z,3.37
2018-01-30T10:28:31.547Z,3.47
2018-01-30T10:30:57.344Z,3.60
2018-01-30T10:33:23.093Z,3.47
2018-01-30T10:35:48.861Z,3.70
2018-01-30T10:38:21.593Z,3.67
2018-01-30T10:40:47.354Z,4.00
2018-01-30T10:43:13.111Z,3.50
2018-01-30T10:45:38.883Z,3.97
2018-01-30T10:48:04.635Z,4.00
2018-01-30T10:50:30.387Z,4.40
2018-01-30T10:52:56.166Z,4.00
2018-01-30T10:55:21.928Z,4.87
2018-01-30T10:57:47.685Z,4.10
2018-01-30T11:00:13.450Z,4.53
2018-01-30T11:02:39.231Z,5.03
2018-01-30T11:05:04.983Z,5.27
2018-01-30T11:07:30.780Z,5.07
2018-01-30T11:09:56.532Z,5.27
2018-01-30T11:12:22.307Z,3.00
2018-01-30T11:14:48.146Z,2.77
2018-01-30T11:17:13.903Z,2.53
2018-01-30T11:19:39.663Z,2.60
2018-01-30T11:22:05.433Z,3.30
2018-01-30T11:24:31.189Z,3.60
2018-01-30T11:26:56.951Z,3.67
2018-01-30T11:29:22.707Z,3.40
2018-01-30T11:31:48.478Z,2.87
2018-01-30T11:34:14.274Z,4.13
2018-01-30T11:36:40.018Z,3.90
2018-01-30T11:39:05.770Z,4.00
2018-01-30T11:41:31.585Z,4.57
2018-01-30T11:43:57.302Z,4.97
2018-01-30T11:46:23.056Z,4.80
2018-01-30T11:48:48.838Z,4.57
2018-01-30T11:51:14.609Z,4.57
2018-01-30T11:53:40.380Z,4.77
2018-01-30T11:56:06.125Z,5.50
2018-01-30T11:58:31.890Z,5.00
2018-01-30T12:00:57.672Z,4.23
2018-01-30T12:03:23.436Z,4.63
2018-01-30T12:05:49.206Z,4.83
2018-01-30T12:08:14.966Z,4.87
2018-01-30T12:10:40.727Z,4.23
2018-01-30T12:13:13.402Z,3.60
2018-01-30T12:15:39.138Z,4.60
2018-01-30T12:18:04.894Z,4.27
2018-01-30T12:20:30.645Z,4.83
2018-01-30T12:22:56.398Z,4.30
2018-01-30T12:25:22.160Z,4.67
2018-01-30T12:27:47.940Z,4.83
2018-01-30T12:30:13.691Z,3.60
2018-01-30T12:32:39.442Z,5.03
2018-01-30T12:35:05.191Z,4.93
2018-01-30T12:37:30.959Z,4.13
2018-01-30T12:39:56.710Z,3.50
2018-01-30T12:42:22.456Z,4.67
2018-01-30T12:44:48.206Z,5.13
2018-01-30T12:47:13.935Z,4.37
2018-01-30T12:49:39.687Z,4.80
2018-01-30T12:52:05.424Z,4.37
2018-01-30T12:54:38.394Z,4.47
2018-01-30T12:57:04.131Z,4.07
2018-01-30T12:59:29.877Z,4.53
2018-01-30T13:01:55.618Z,4.00
2018-01-30T13:04:21.379Z,4.67
2018-01-30T13:06:47.128Z,4.47
2018-01-30T13:09:12.887Z,3.93
2018-01-30T13:11:38.630Z,4.17
2018-01-30T13:14:04.378Z,3.37
2018-01-30T13:16:30.126Z,3.63
2018-01-30T13:18:55.896Z,3.50
2018-01-30T13:21:21.662Z,3.90
2018-01-30T13:23:47.421Z,3.73
2018-01-30T13:26:13.175Z,3.83
2018-01-30T13:28:38.948Z,4.33
2018-01-30T13:33:37.201Z,3.87
2018-01-30T13:36:03.031Z,3.67
2018-01-30T13:38:28.792Z,3.60
2018-01-30T13:40:54.616Z,3.70
2018-01-30T13:43:20.339Z,3.70
2018-01-30T13:45:46.111Z,3.50
2018-01-30T13:48:11.872Z,4.50
2018-01-30T13:50:37.630Z,3.60
2018-01-30T13:53:03.383Z,3.70
2018-01-30T13:55:29.143Z,3.73
2018-01-30T13:57:54.895Z,3.47
2018-01-30T14:00:20.662Z,4.03
2018-01-30T14:02:46.415Z,3.87
2018-01-30T14:05:12.170Z,4.00
2018-01-30T14:07:37.934Z,3.50
2018-01-30T14:10:03.710Z,3.87
2018-01-30T14:12:29.525Z,3.93
2018-01-30T14:14:55.270Z,3.87
2018-01-30T14:17:21.030Z,3.87
2018-01-30T14:19:46.791Z,3.90
2018-01-30T14:22:12.562Z,3.90
2018-01-30T14:24:38.326Z,3.80
2018-01-30T14:27:04.092Z,3.70
2018-01-30T14:29:29.848Z,3.83
2018-01-30T14:31:55.610Z,3.77
2018-01-30T14:34:21.359Z,3.00
2018-01-30T14:36:54.035Z,3.70
2018-01-30T14:39:19.779Z,4.05
2018-01-30T14:41:45.533Z,3.67
2018-01-30T14:44:11.275Z,3.30
2018-01-30T14:46:37.035Z,4.50
2018-01-30T14:49:02.783Z,3.97
2018-01-30T14:51:28.539Z,3.83
2018-01-30T14:53:54.296Z,3.73
2018-01-30T14:56:20.071Z,3.97
2018-01-30T14:58:45.824Z,3.87
2018-01-30T15:01:11.587Z,3.57
2018-01-30T15:03:37.347Z,3.67
2018-01-30T15:06:03.104Z,4.10
2018-01-30T15:08:28.878Z,4.30
2018-01-30T15:10:54.634Z,4.50
2018-01-30T15:13:20.435Z,4.23
2018-01-30T15:15:46.183Z,4.17
2018-01-30T15:18:11.934Z,4.47
2018-01-30T15:20:37.682Z,4.47
2018-01-30T15:23:03.443Z,5.40
2018-01-30T15:25:29.203Z,4.57
2018-01-30T15:27:54.955Z,4.00
2018-01-30T15:30:20.684Z,3.70
2018-01-30T15:32:46.451Z,4.40
2018-01-30T15:35:12.196Z,4.47
2018-01-30T15:37:37.960Z,5.23
2018-01-30T15:40:03.755Z,3.53
2018-01-30T15:42:29.515Z,3.90
2018-01-30T15:44:55.274Z,4.17
2018-01-30T15:47:21.035Z,4.30
2018-01-30T15:49:46.818Z,4.00
2018-01-30T15:52:12.561Z,5.37
2018-01-30T15:54:38.334Z,4.17
2018-01-30T15:57:04.096Z,4.50
2018-01-30T15:59:29.858Z,4.47
2018-01-30T16:01:55.623Z,4.30
2018-01-30T16:04:21.388Z,4.80
2018-01-30T16:06:47.134Z,4.33
2018-01-30T16:09:12.886Z,3.90
2018-01-30T16:11:38.650Z,4.63
2018-01-30T16:14:04.415Z,4.07
2018-01-30T16:16:30.172Z,4.30
2018-01-30T16:18:55.921Z,3.80
2018-01-30T16:21:21.658Z,5.53
2018-01-30T16:23:47.418Z,4.67
2018-01-30T16:26:13.172Z,5.20
2018-01-30T16:28:38.918Z,5.53
2018-01-30T16:31:04.687Z,4.53
2018-01-30T16:33:30.457Z,5.33
2018-01-30T16:35:56.206Z,5.33
2018-01-30T16:38:21.975Z,5.50
2018-01-30T16:40:47.775Z,4.97
2018-01-30T16:43:13.519Z,5.40
2018-01-30T16:45:39.279Z,4.83
2018-01-30T16:48:05.034Z,5.80
2018-01-30T16:50:30.801Z,5.47
2018-01-30T16:52:56.559Z,6.03
2018-01-30T16:55:22.315Z,5.83
2018-01-30T16:57:48.083Z,5.50
2018-01-30T17:00:13.855Z,6.43
2018-01-30T17:02:39.611Z,4.83
2018-01-30T17:05:05.385Z,6.90
2018-01-30T17:07:31.142Z,5.87
2018-01-30T17:09:56.918Z,5.20
2018-01-30T17:12:22.730Z,5.13
2018-01-30T17:14:48.487Z,5.33
2018-01-30T17:17:14.263Z,5.70
2018-01-30T17:19:40.026Z,5.27
2018-01-30T17:22:05.794Z,5.00
2018-01-30T17:24:31.559Z,5.70
2018-01-30T17:26:57.331Z,5.70
2018-01-30T17:29:23.103Z,6.57
2018-01-30T17:31:48.891Z,4.63
2018-01-30T17:34:14.635Z,4.70
2018-01-30T17:36:40.382Z,6.33
2018-01-30T17:39:06.127Z,4.97
2018-01-30T17:41:31.890Z,5.27
2018-01-30T17:43:57.643Z,5.97
2018-01-30T17:46:23.403Z,6.43
2018-01-30T17:48:49.150Z,5.23
2018-01-30T17:51:14.898Z,4.70
2018-01-30T17:53:40.634Z,4.80
2018-01-30T17:56:06.454Z,5.50
2018-01-30T17:58:32.219Z,5.23
2018-01-30T18:00:57.978Z,4.77
2018-01-30T18:03:23.744Z,4.73
2018-01-30T18:05:49.474Z,5.00
2018-01-30T18:08:15.218Z,5.07
2018-01-30T18:10:41.008Z,5.80
2018-01-30T18:13:06.771Z,7.73
2018-01-30T18:15:32.573Z,5.47
2018-01-30T18:17:58.330Z,4.83
2018-01-30T18:20:24.126Z,5.73
2018-01-30T18:22:49.900Z,4.70
2018-01-30T18:25:15.666Z,4.97
2018-01-30T18:27:41.436Z,4.27
2018-01-30T18:30:07.210Z,4.97
2018-01-30T18:32:32.988Z,5.40
2018-01-30T18:34:58.734Z,4.33
2018-01-30T18:37:24.478Z,4.90
2018-01-30T18:39:50.241Z,4.87
2018-01-30T18:42:15.999Z,4.87
2018-01-30T18:44:41.795Z,5.13
2018-01-30T18:47:07.550Z,6.63
2018-01-30T18:49:33.420Z,5.60
2018-01-30T18:51:59.162Z,6.33
2018-01-30T18:54:24.918Z,5.43
2018-01-30T18:56:50.682Z,4.60
2018-01-30T18:59:16.452Z,4.90
2018-01-30T19:01:42.203Z,4.73
2018-01-30T19:04:07.969Z,4.90
2018-01-30T19:06:33.735Z,4.57
2018-01-30T19:08:59.511Z,5.77
2018-01-30T19:11:25.267Z,4.80
2018-01-30T19:13:51.039Z,4.50
2018-01-30T19:16:16.790Z,4.37
2018-01-30T19:18:42.538Z,5.53
2018-01-30T19:21:08.289Z,4.50
2018-01-30T19:23:34.047Z,4.93
2018-01-30T19:25:59.809Z,4.60
2018-01-30T19:28:25.555Z,5.80
2018-01-30T19:30:51.331Z,4.87
2018-01-30T19:33:17.087Z,6.50
2018-01-30T19:35:42.851Z,5.30
2018-01-30T19:38:08.611Z,5.57
2018-01-30T19:40:34.374Z,4.73
2018-01-30T19:43:00.126Z,4.73
2018-01-30T19:45:25.881Z,4.83
2018-01-30T19:47:51.637Z,4.50
2018-01-30T19:50:17.402Z,5.10
2018-01-30T19:52:43.151Z,5.27
2018-01-30T19:55:08.898Z,5.00
2018-01-30T19:57:34.643Z,5.20
2018-01-30T20:00:00.382Z,5.67
2018-01-30T20:02:26.155Z,4.87
2018-01-30T20:04:51.911Z,5.53
2018-01-30T20:07:17.670Z,5.73
2018-01-30T20:09:43.421Z,5.30
2018-01-30T20:12:09.182Z,5.30
2018-01-30T20:14:34.943Z,5.27
2018-01-30T20:17:00.705Z,5.47
2018-01-30T20:19:26.446Z,5.10
2018-01-30T20:21:52.190Z,5.03
2018-01-30T20:24:17.935Z,5.73
2018-01-30T20:26:44.562Z,5.27
2018-01-30T20:29:10.294Z,4.72
2018-01-30T20:31:36.058Z,5.10
2018-01-30T20:34:01.823Z,5.57
2018-01-30T20:36:27.598Z,5.53
2018-01-30T20:38:53.358Z,5.60
2018-01-30T20:41:19.119Z,5.63
2018-01-30T20:43:44.890Z,5.17
2018-01-30T20:46:10.646Z,5.53
2018-01-30T20:48:36.413Z,5.73
2018-01-30T20:51:02.218Z,5.17
2018-01-30T20:53:27.947Z,5.10
2018-01-30T20:55:53.703Z,5.00
2018-01-30T20:58:19.474Z,5.00
2018-01-30T21:00:45.244Z,5.53
2018-01-30T21:03:11.007Z,5.60
2018-01-30T21:05:36.756Z,5.43
2018-01-30T21:08:02.514Z,5.17
2018-01-30T21:10:28.255Z,5.50
2018-01-30T21:12:54.015Z,5.57
2018-01-30T21:15:19.760Z,5.43
2018-01-30T21:17:45.583Z,6.07
2018-01-30T21:20:11.330Z,6.90
2018-01-30T21:22:37.062Z,7.03
2018-01-30T21:25:02.821Z,7.70
2018-01-30T21:27:28.571Z,7.83
2018-01-30T21:29:54.331Z,7.53
2018-01-30T21:32:20.104Z,9.10
2018-01-30T21:34:45.853Z,9.40
2018-01-30T21:37:11.623Z,9.03
2018-01-30T21:39:37.394Z,10.57
2018-01-30T21:42:03.154Z,10.70
2018-01-30T21:44:28.978Z,11.53
2018-01-30T21:46:55.038Z,10.97
2018-01-30T21:49:21.098Z,11.52
2018-01-30T21:51:47.402Z,11.90
2018-01-30T21:54:18.398Z,12.45
2018-01-30T21:56:39.046Z,13.57
2018-01-30T21:59:04.834Z,12.57
2018-01-30T22:01:30.591Z,13.40
2018-01-30T22:03:57.288Z,13.60
2018-01-30T22:06:23.150Z,12.95
2018-01-30T22:08:48.920Z,13.27
2018-01-30T22:11:14.978Z,14.93
2018-01-30T22:13:40.758Z,14.05
2018-01-30T22:16:06.532Z,14.60
2018-01-30T22:18:32.279Z,15.50
2018-01-30T22:20:58.086Z,16.00
2018-01-30T22:23:23.851Z,16.40
2018-01-30T22:25:49.623Z,17.00
2018-01-30T22:28:15.425Z,15.70
2018-01-30T22:30:41.498Z,17.30
2018-01-30T22:33:07.269Z,18.00
2018-01-30T22:35:34.022Z,17.67
2018-01-30T22:37:59.790Z,18.35
2018-01-30T22:40:25.701Z,21.03
2018-01-30T22:42:51.829Z,20.60
2018-01-30T22:45:17.602Z,20.37
